Time;durP1;ratioP1;P1;durP2;ratioP2;P2;SDS_P1;SDS_P2;PMS_P1;PMS_P2;Temp;Humidity;BMP_temperature;BMP_pressure;BME280_temperature;BME280_humidity;BME280_pressure;Samples;Min_cycle;Max_cycle;Signal;HPM_P1;HPM_P2
2023/10/25 00:02:23;;;;;;;11.38;8.68;;;;;;;10.01;85.15;97622.28;5080225;28;20043;-81
2023/10/25 00:04:56;;;;;;;10.75;8.27;;;;;;;10.05;84.65;97615.31;5073948;28;20085;-81
2023/10/25 00:07:21;;;;;;;9.63;7.95;;;;;;;10.05;84.94;97610.81;5075331;28;20031;-81
2023/10/25 00:09:47;;;;;;;12.50;8.50;;;;;;;10.00;84.49;97610.84;5077656;28;20044;-81
2023/10/25 00:12:12;;;;;;;9.35;7.93;;;;;;;10.12;84.88;97618.53;5082640;28;20054;-81
2023/10/25 00:14:38;;;;;;;12.85;7.65;;;;;;;10.09;84.68;97611.84;5076674;28;20027;-80
2023/10/25 00:17:03;;;;;;;9.05;7.05;;;;;;;10.14;84.33;97605.72;5083443;28;20024;-81
2023/10/25 00:19:29;;;;;;;9.30;7.38;;;;;;;10.04;84.87;97613.75;5061964;28;20028;-81
2023/10/25 00:21:54;;;;;;;8.98;6.72;;;;;;;10.13;84.18;97614.81;5077760;28;20379;-82
2023/10/25 00:24:19;;;;;;;8.88;7.63;;;;;;;10.01;84.15;97614.28;5079368;28;20043;-81
2023/10/25 00:26:45;;;;;;;9.60;7.30;;;;;;;9.92;84.11;97610.59;5069767;28;20460;-82
2023/10/25 00:29:10;;;;;;;8.57;7.47;;;;;;;9.98;84.60;97617.53;5080076;28;20024;-81
2023/10/25 00:31:35;;;;;;;8.35;6.45;;;;;;;9.87;85.27;97629.31;5077806;28;20253;-81
2023/10/25 00:34:01;;;;;;;9.20;5.93;;;;;;;9.86;85.23;97636.50;5077798;28;20036;-80
2023/10/25 00:36:26;;;;;;;8.60;5.68;;;;;;;9.90;84.94;97628.72;5078644;28;20032;-81
2023/10/25 00:38:52;;;;;;;8.40;6.18;;;;;;;9.92;84.45;97629.25;5074520;28;20068;-81
2023/10/25 00:41:17;;;;;;;8.73;5.90;;;;;;;9.93;84.60;97630.88;5077233;28;20424;-80
2023/10/25 00:43:42;;;;;;;5.88;5.00;;;;;;;9.87;85.12;97630.09;5078670;28;20036;-81
2023/10/25 00:46:12;;;;;;;9.45;6.32;;;;;;;9.97;85.04;97621.25;5062461;28;20031;-81
2023/10/25 00:48:45;;;;;;;5.70;4.82;;;;;;;9.88;84.47;97612.22;5072309;28;20024;-80
2023/10/25 00:51:12;;;;;;;5.38;4.25;;;;;;;9.90;84.70;97637.53;5080125;28;20548;-80
2023/10/25 00:53:40;;;;;;;6.35;5.75;;;;;;;9.85;85.18;97637.53;5084675;28;20032;-81
2023/10/25 00:56:09;;;;;;;7.22;5.88;;;;;;;9.88;85.08;97628.22;5085650;28;20059;-81
2023/10/25 00:58:35;;;;;;;6.70;4.88;;;;;;;9.86;85.10;97625.03;5084791;28;20036;-81
2023/10/25 01:01:00;;;;;;;8.07;4.85;;;;;;;9.85;85.43;97634.09;5063420;28;20032;-80
2023/10/25 01:03:26;;;;;;;5.47;4.13;;;;;;;9.82;85.38;97624.78;5073940;28;20031;-81
2023/10/25 01:05:52;;;;;;;6.70;4.80;;;;;;;9.85;85.21;97621.56;5090058;28;20032;-80
2023/10/25 01:08:19;;;;;;;9.50;4.82;;;;;;;9.81;85.13;97621.31;5083525;28;20137;-81
2023/10/25 01:10:47;;;;;;;6.20;5.57;;;;;;;9.80;85.68;97626.94;5074299;28;20044;-81
2023/10/25 01:13:12;;;;;;;8.73;5.32;;;;;;;9.80;84.94;97618.94;5079830;28;20360;-81
2023/10/25 01:15:37;;;;;;;5.43;4.20;;;;;;;9.72;85.66;97612.28;5083286;28;20039;-81
2023/10/25 01:18:03;;;;;;;5.32;4.38;;;;;;;9.71;85.85;97604.59;5078783;28;20032;-81
2023/10/25 01:20:31;;;;;;;6.45;5.15;;;;;;;9.78;85.68;97605.09;5056377;28;20516;-81
2023/10/25 01:22:57;;;;;;;7.15;4.38;;;;;;;9.82;85.26;97606.13;5081772;28;20128;-81
2023/10/25 01:25:23;;;;;;;7.70;5.40;;;;;;;9.82;85.29;97598.13;5065574;28;20495;-81
2023/10/25 01:27:49;;;;;;;7.45;5.35;;;;;;;9.74;85.11;97593.38;5071149;28;20024;-81
2023/10/25 01:30:14;;;;;;;8.52;5.90;;;;;;;9.79;85.19;97585.34;5080907;28;20030;-81
2023/10/25 01:32:39;;;;;;;6.38;4.97;;;;;;;9.73;85.13;97583.78;5083880;28;20024;-81
2023/10/25 01:35:05;;;;;;;7.57;5.30;;;;;;;9.54;86.14;97593.47;5083881;28;20055;-81
2023/10/25 01:37:31;;;;;;;9.48;5.93;;;;;;;9.58;86.15;97586.53;5083731;28;20427;-82
2023/10/25 01:39:56;;;;;;;8.05;5.20;;;;;;;9.46;86.67;97592.16;5079828;28;20031;-81
2023/10/25 01:42:21;;;;;;;9.27;5.35;;;;;;;9.48;86.80;97590.00;5082626;28;20149;-81
2023/10/25 01:44:47;;;;;;;7.72;5.75;;;;;;;9.55;86.81;97593.19;5075674;28;20383;-81
2023/10/25 01:47:12;;;;;;;9.48;5.60;;;;;;;9.44;86.89;97585.50;5080983;28;20479;-81
2023/10/25 01:49:37;;;;;;;7.88;5.38;;;;;;;9.41;86.90;97594.03;5081947;28;20064;-81
2023/10/25 01:52:03;;;;;;;6.43;5.60;;;;;;;9.59;86.21;97596.09;5084145;28;20053;-80
2023/10/25 01:54:28;;;;;;;8.00;5.05;;;;;;;9.75;86.14;97594.97;5075564;28;20032;-82
2023/10/25 01:56:54;;;;;;;9.65;5.85;;;;;;;9.64;85.92;97588.88;5086337;28;20115;-81
2023/10/25 01:59:19;;;;;;;11.30;5.95;;;;;;;9.53;86.54;97584.66;5078860;28;20047;-81
2023/10/25 02:01:44;;;;;;;9.60;6.95;;;;;;;9.48;86.64;97591.91;5085193;28;20035;-81
2023/10/25 02:04:10;;;;;;;7.38;5.65;;;;;;;9.48;86.67;97581.25;5070944;28;20080;-81
2023/10/25 02:06:35;;;;;;;9.80;5.63;;;;;;;9.25;87.39;97581.81;5072867;28;20032;-81
2023/10/25 02:09:00;;;;;;;11.07;6.10;;;;;;;9.08;88.31;97574.16;5064356;28;20055;-81
2023/10/25 02:11:26;;;;;;;8.30;6.43;;;;;;;8.76;90.00;97571.81;5083708;28;20028;-81
2023/10/25 02:13:51;;;;;;;10.50;7.90;;;;;;;8.38;91.31;97571.56;5085263;28;20424;-81
2023/10/25 02:16:17;;;;;;;10.20;8.00;;;;;;;8.37;92.28;97575.25;5082955;28;20124;-81
2023/10/25 02:18:43;;;;;;;13.23;8.38;;;;;;;8.50;92.02;97567.56;5078061;28;20063;-81
2023/10/25 02:21:10;;;;;;;13.77;9.82;;;;;;;8.45;91.01;97570.25;5077649;28;20056;-80
2023/10/25 02:23:36;;;;;;;8.77;6.75;;;;;;;9.12;89.27;97575.22;5077652;28;20043;-81
2023/10/25 02:26:01;;;;;;;7.82;6.03;;;;;;;9.03;88.68;97564.31;5085439;28;20399;-81
2023/10/25 02:28:26;;;;;;;10.10;7.28;;;;;;;9.11;88.98;97572.84;5081138;28;20499;-80
2023/10/25 02:30:52;;;;;;;6.75;5.78;;;;;;;9.11;88.37;97578.94;5080269;28;20024;-81
2023/10/25 02:33:17;;;;;;;13.88;8.45;;;;;;;8.61;89.84;97573.66;5087331;28;20044;-81
2023/10/25 02:35:42;;;;;;;14.57;9.13;;;;;;;8.50;90.12;97577.38;5065612;28;20036;-80
2023/10/25 02:38:08;;;;;;;17.98;10.27;;;;;;;8.07;92.13;97584.78;5061867;28;20037;-81
2023/10/25 02:40:36;;;;;;;11.13;6.97;;;;;;;8.86;89.77;97579.78;5079874;28;20123;-81
2023/10/25 02:43:01;;;;;;;10.35;7.40;;;;;;;8.53;91.64;97575.00;5076727;28;20089;-81
2023/10/25 02:45:27;;;;;;;11.30;6.68;;;;;;;8.88;90.55;97575.00;5084730;28;20036;-81
2023/10/25 02:47:54;;;;;;;18.27;9.75;;;;;;;8.58;89.81;97566.25;5081786;28;20122;-81
2023/10/25 02:50:20;;;;;;;9.13;7.13;;;;;;;8.44;91.37;97578.47;5083030;28;20036;-80
2023/10/25 02:52:48;;;;;;;12.60;8.95;;;;;;;8.34;90.61;97579.28;5080034;28;20093;-81
2023/10/25 02:55:15;;;;;;;13.38;9.40;;;;;;;8.03;92.36;97574.94;5063787;28;20028;-80
2023/10/25 02:57:41;;;;;;;16.25;10.77;;;;;;;8.17;91.83;97581.31;5078260;28;20033;-80
2023/10/25 03:00:07;;;;;;;11.32;7.13;;;;;;;8.70;90.25;97572.06;5072398;28;20115;-81
2023/10/25 03:02:32;;;;;;;8.60;7.28;;;;;;;8.34;91.14;97568.63;5084588;28;20042;-80
2023/10/25 03:04:58;;;;;;;11.57;8.63;;;;;;;8.17;91.02;97568.84;5082202;28;20081;-81
2023/10/25 03:07:23;;;;;;;10.77;7.18;;;;;;;8.27;92.46;97573.41;5078740;28;20475;-80
2023/10/25 03:09:49;;;;;;;12.82;9.27;;;;;;;8.28;91.47;97572.34;5080839;28;20115;-81
2023/10/25 03:12:14;;;;;;;11.65;7.82;;;;;;;8.50;91.55;97575.53;5076352;28;20051;-81
2023/10/25 03:14:40;;;;;;;15.00;8.82;;;;;;;8.66;90.07;97568.34;5082445;28;20039;-81
2023/10/25 03:17:05;;;;;;;11.32;8.05;;;;;;;8.14;92.74;97569.38;5080586;28;20046;-81
2023/10/25 03:19:30;;;;;;;9.48;6.63;;;;;;;8.48;91.77;97564.38;5082297;28;20028;-81
2023/10/25 03:21:56;;;;;;;11.80;8.18;;;;;;;8.64;90.69;97571.28;5081267;28;20032;-80
2023/10/25 03:24:23;;;;;;;14.43;10.27;;;;;;;8.11;91.90;97564.59;5079078;28;20028;-80
2023/10/25 03:26:48;;;;;;;10.45;7.00;;;;;;;8.66;89.99;97558.53;5078110;28;20032;-80
2023/10/25 03:29:14;;;;;;;13.20;8.10;;;;;;;9.06;89.03;97555.78;5074202;28;20140;-80
2023/10/25 03:31:39;;;;;;;8.25;6.13;;;;;;;9.07;88.17;97562.72;5072094;28;20047;-80
2023/10/25 03:34:05;;;;;;;8.48;6.40;;;;;;;9.04;87.88;97541.94;5076963;28;20042;-80
2023/10/25 03:36:30;;;;;;;8.48;6.18;;;;;;;9.03;88.30;97553.69;5075676;28;20029;-81
2023/10/25 03:38:56;;;;;;;9.15;6.15;;;;;;;9.00;88.78;97546.22;5069306;28;20032;-81
2023/10/25 03:41:21;;;;;;;11.27;7.45;;;;;;;8.63;89.25;97551.06;5050802;28;20420;-80
2023/10/25 03:43:46;;;;;;;12.98;9.77;;;;;;;7.83;93.26;97545.66;5083592;28;20451;-80
2023/10/25 03:46:12;;;;;;;19.02;12.32;;;;;;;7.90;93.58;97546.22;5054990;28;20043;-81
2023/10/25 03:48:38;;;;;;;21.17;11.30;;;;;;;7.56;96.05;97549.31;5072461;28;20038;-81
2023/10/25 03:51:07;;;;;;;22.52;13.05;;;;;;;7.44;96.07;97534.66;5079725;28;20053;-81
2023/10/25 03:53:41;;;;;;;12.25;7.90;;;;;;;7.99;95.24;97531.38;5083017;28;20086;-80
2023/10/25 03:56:07;;;;;;;10.70;7.43;;;;;;;8.76;91.40;97528.44;5074391;28;20036;-81
2023/10/25 03:58:32;;;;;;;10.30;6.00;;;;;;;9.06;88.79;97534.50;5068928;28;20060;-81
2023/10/25 04:01:02;;;;;;;9.32;6.13;;;;;;;9.29;87.72;97541.09;5060368;28;20115;-81
2023/10/25 04:03:27;;;;;;;15.68;7.10;;;;;;;9.41;87.58;97538.13;5070374;28;20032;-81
2023/10/25 04:05:53;;;;;;;7.93;6.22;;;;;;;9.29;87.08;97524.31;5086467;28;20024;-81
2023/10/25 04:08:19;;;;;;;7.47;5.97;;;;;;;9.41;87.12;97532.78;5067284;28;20038;-81
2023/10/25 04:10:52;;;;;;;8.93;6.47;;;;;;;9.44;87.03;97535.69;5078359;28;20479;-81
2023/10/25 04:13:19;;;;;;;10.35;5.28;;;;;;;9.44;86.68;97534.88;5086375;28;20058;-81
2023/10/25 04:16:02;;;;;;;9.32;6.30;;;;;;;9.37;87.30;97523.75;5052563;28;20039;-81
2023/10/25 04:18:30;;;;;;;5.72;5.00;;;;;;;9.36;86.84;97508.84;5070838;28;20157;-81
2023/10/25 04:20:56;;;;;;;8.43;6.57;;;;;;;9.35;87.16;97521.34;5063390;28;20097;-81
2023/10/25 04:23:23;;;;;;;11.10;5.45;;;;;;;9.47;86.77;97521.03;5077343;28;20032;-81
2023/10/25 04:25:49;;;;;;;9.50;6.07;;;;;;;9.50;86.67;97523.94;5068735;28;20402;-81
2023/10/25 04:28:14;;;;;;;7.65;5.43;;;;;;;9.44;87.00;97527.72;5077342;28;20027;-81
2023/10/25 04:30:40;;;;;;;6.60;5.88;;;;;;;9.41;87.07;97535.44;5081141;28;20048;-81
2023/10/25 04:33:06;;;;;;;9.05;5.80;;;;;;;9.27;87.24;97545.06;5080168;28;20025;-81
2023/10/25 04:35:32;;;;;;;11.52;5.72;;;;;;;9.30;87.78;97528.56;5078530;28;20027;-82
2023/10/25 04:37:57;;;;;;;6.93;5.85;;;;;;;9.27;87.73;97540.56;5071437;28;20028;-81
2023/10/25 04:40:23;;;;;;;9.43;6.03;;;;;;;9.30;87.67;97537.38;5077463;28;20072;-81
2023/10/25 04:42:50;;;;;;;10.25;6.20;;;;;;;9.27;87.23;97529.09;5075813;28;20534;-81
2023/10/25 04:45:16;;;;;;;6.82;5.13;;;;;;;9.28;87.21;97512.88;5074745;28;20028;-81
2023/10/25 04:47:41;;;;;;;7.70;5.38;;;;;;;9.20;87.41;97512.63;5073582;28;20039;-81
2023/10/25 04:50:07;;;;;;;7.30;5.40;;;;;;;9.25;87.09;97502.75;5081322;28;20032;-81
2023/10/25 04:52:32;;;;;;;9.55;5.00;;;;;;;9.16;87.68;97511.56;5077568;28;20032;-81
2023/10/25 04:54:58;;;;;;;7.50;4.70;;;;;;;9.23;87.09;97512.09;5059645;28;20032;-81
2023/10/25 04:57:23;;;;;;;6.13;5.00;;;;;;;9.27;86.93;97505.16;5094800;28;20032;-81
2023/10/25 04:59:49;;;;;;;7.70;5.50;;;;;;;9.22;87.08;97499.88;5042759;28;20024;-81
2023/10/25 05:02:14;;;;;;;10.25;6.28;;;;;;;9.12;87.00;97494.56;5066498;28;20025;-81
2023/10/25 05:04:40;;;;;;;8.23;5.28;;;;;;;9.23;86.28;97486.28;5083395;28;20040;-81
2023/10/25 05:07:06;;;;;;;7.72;4.97;;;;;;;9.13;86.74;97493.50;5060155;28;20097;-81
2023/10/25 05:09:32;;;;;;;8.38;6.40;;;;;;;8.89;86.87;97490.63;5075356;28;20454;-80
2023/10/25 05:12:02;;;;;;;6.57;5.28;;;;;;;8.92;86.56;97490.91;5079747;28;20111;-81
2023/10/25 05:14:28;;;;;;;5.38;4.70;;;;;;;8.92;86.25;97496.22;5085894;28;20028;-80
2023/10/25 05:16:54;;;;;;;8.88;6.18;;;;;;;8.62;87.37;97493.63;5082189;28;20394;-81
2023/10/25 05:19:20;;;;;;;11.05;7.05;;;;;;;8.57;87.98;97496.28;5079031;28;20035;-82
2023/10/25 05:21:49;;;;;;;10.20;6.90;;;;;;;8.78;87.13;97489.84;5078518;28;20040;-81
2023/10/25 05:24:15;;;;;;;7.47;5.85;;;;;;;9.10;85.52;97480.72;5072350;28;20055;-81
2023/10/25 05:26:41;;;;;;;7.50;5.82;;;;;;;9.02;86.12;97482.09;5057750;28;20483;-81
2023/10/25 05:29:07;;;;;;;12.20;6.32;;;;;;;9.08;85.83;97489.00;5083890;28;20032;-82
2023/10/25 05:31:34;;;;;;;10.63;6.13;;;;;;;9.07;85.93;97490.84;5064055;28;20034;-82
2023/10/25 05:34:00;;;;;;;10.43;5.78;;;;;;;8.97;85.60;97484.78;5082684;28;20036;-82
2023/10/25 05:36:32;;;;;;;8.20;5.82;;;;;;;8.98;84.91;97479.16;5073716;28;20119;-82
2023/10/25 05:38:58;;;;;;;7.35;5.88;;;;;;;8.78;85.79;97475.78;5080473;28;20487;-83
2023/10/25 05:41:25;;;;;;;8.52;6.03;;;;;;;8.48;86.61;97471.31;5083460;28;20024;-82
2023/10/25 05:44:02;;;;;;;15.52;8.85;;;;;;;8.25;86.02;97463.88;5078506;28;20488;-83
2023/10/25 05:46:27;;;;;;;8.30;6.20;;;;;;;8.52;87.07;97487.53;5086617;28;20111;-82
2023/10/25 05:48:54;;;;;;;7.47;6.03;;;;;;;8.27;87.47;97483.84;5079765;28;20202;-82
2023/10/25 05:51:19;;;;;;;11.40;9.13;;;;;;;8.18;87.10;97487.25;5080837;28;20053;-83
2023/10/25 05:53:47;;;;;;;10.32;6.50;;;;;;;8.38;87.67;97481.97;5070254;28;20032;-82
2023/10/25 05:56:13;;;;;;;8.13;6.13;;;;;;;8.55;86.55;97485.13;5065382;28;20052;-82
2023/10/25 05:58:38;;;;;;;9.35;6.38;;;;;;;8.67;86.39;97482.19;5066713;28;20439;-83
2023/10/25 06:01:08;;;;;;;12.95;7.15;;;;;;;8.49;86.59;97480.09;5075435;28;20078;-82
2023/10/25 06:03:35;;;;;;;12.38;6.53;;;;;;;8.57;86.58;97490.97;5083132;28;20498;-83
2023/10/25 06:06:01;;;;;;;8.55;6.10;;;;;;;8.62;86.93;97485.66;5069731;28;20229;-83
2023/10/25 06:08:27;;;;;;;6.63;5.93;;;;;;;8.75;85.80;97490.41;5080483;28;20028;-82
2023/10/25 06:10:54;;;;;;;12.05;7.07;;;;;;;8.70;85.87;97482.44;5068735;28;20441;-82
2023/10/25 06:13:19;;;;;;;7.80;6.28;;;;;;;8.70;85.67;97485.09;5086922;28;20035;-82
2023/10/25 06:15:45;;;;;;;10.13;6.63;;;;;;;8.65;86.03;97484.31;5073684;28;20395;-82
2023/10/25 06:18:11;;;;;;;12.60;8.05;;;;;;;8.48;86.11;97489.13;5085586;28;20025;-82
2023/10/25 06:20:37;;;;;;;9.38;6.97;;;;;;;8.11;87.15;97492.84;5080717;28;20526;-82
2023/10/25 06:23:02;;;;;;;8.82;6.45;;;;;;;8.43;87.64;97497.88;5079532;28;20082;-82
2023/10/25 06:25:31;;;;;;;9.75;7.00;;;;;;;8.75;86.24;97503.72;5084985;28;20067;-82
2023/10/25 06:27:59;;;;;;;9.48;7.57;;;;;;;8.55;86.09;97497.63;5088053;28;20020;-82
2023/10/25 06:30:25;;;;;;;10.82;8.32;;;;;;;8.37;87.11;97498.97;5078423;28;20028;-82
2023/10/25 06:32:51;;;;;;;10.55;7.57;;;;;;;8.45;86.77;97505.63;5079611;28;20035;-82
2023/10/25 06:35:16;;;;;;;8.77;6.50;;;;;;;8.55;86.98;97498.44;5088105;28;20028;-82
2023/10/25 06:37:42;;;;;;;15.93;10.80;;;;;;;8.01;88.78;97492.03;5083293;28;20029;-82
2023/10/25 06:40:08;;;;;;;15.85;10.48;;;;;;;8.11;90.08;97500.00;5072741;28;20123;-82
2023/10/25 06:42:33;;;;;;;13.57;9.90;;;;;;;8.12;89.96;97498.97;5087207;28;20032;-81
2023/10/25 06:44:59;;;;;;;14.10;8.25;;;;;;;8.44;89.00;97506.66;5084651;28;20032;-82
2023/10/25 06:47:26;;;;;;;10.38;7.63;;;;;;;8.61;87.97;97500.00;5071331;28;20416;-81
2023/10/25 06:49:52;;;;;;;10.73;8.15;;;;;;;8.52;89.20;97501.63;5080075;28;20127;-81
2023/10/25 06:52:18;;;;;;;9.93;7.20;;;;;;;8.72;87.96;97501.59;5053682;28;20035;-81
2023/10/25 06:54:43;;;;;;;11.38;7.13;;;;;;;8.71;87.87;97486.72;5073626;28;20032;-82
2023/10/25 06:57:09;;;;;;;9.27;7.65;;;;;;;8.90;87.23;97501.03;5068291;28;20398;-82
2023/10/25 06:59:35;;;;;;;13.43;7.05;;;;;;;8.88;87.23;97489.84;5092286;28;20031;-82
2023/10/25 07:02:28;;;;;;;9.52;6.93;;;;;;;8.94;87.54;97488.75;5079717;28;20122;-82
2023/10/25 07:05:00;;;;;;;11.13;7.85;;;;;;;8.87;88.51;97496.22;5074817;28;20036;-82
2023/10/25 07:07:30;;;;;;;8.45;6.93;;;;;;;9.02;87.82;97496.19;5077613;28;20077;-82
2023/10/25 07:09:55;;;;;;;10.13;7.05;;;;;;;9.04;87.47;97488.72;5082058;28;20092;-82
2023/10/25 07:12:21;;;;;;;9.95;6.97;;;;;;;9.09;87.59;97492.47;5093735;28;20024;-81
2023/10/25 07:14:46;;;;;;;11.48;7.63;;;;;;;9.17;87.59;97483.91;5073735;28;20036;-81
2023/10/25 07:17:11;;;;;;;11.38;7.32;;;;;;;9.20;86.95;97475.34;5074651;28;20036;-81
2023/10/25 07:19:38;;;;;;;10.95;8.75;;;;;;;9.19;87.60;97485.22;5050725;28;20024;-81
2023/10/25 07:22:03;;;;;;;9.65;7.35;;;;;;;9.25;87.55;97478.00;5063203;28;23758;-81
2023/10/25 07:24:29;;;;;;;8.60;7.35;;;;;;;9.26;87.24;97480.38;5084301;28;20046;-81
2023/10/25 07:26:54;;;;;;;11.40;7.50;;;;;;;9.24;87.48;97473.75;5068882;28;20139;-81
2023/10/25 07:29:19;;;;;;;9.32;7.13;;;;;;;9.21;87.88;97477.75;5065057;28;20132;-81
2023/10/25 07:31:45;;;;;;;9.15;7.47;;;;;;;9.21;88.19;97484.94;5077028;28;20123;-81
2023/10/25 07:34:11;;;;;;;9.10;6.45;;;;;;;9.20;88.38;97488.66;5077366;28;20078;-82
2023/10/25 07:36:36;;;;;;;12.05;6.85;;;;;;;9.25;88.56;97486.00;5058318;28;20032;-81
2023/10/25 07:39:01;;;;;;;10.50;7.32;;;;;;;9.36;88.68;97498.19;5083780;28;20024;-82
2023/10/25 07:41:27;;;;;;;13.88;9.77;;;;;;;9.00;91.45;97481.53;5071095;28;20086;-82
2023/10/25 07:43:52;;;;;;;10.32;6.90;;;;;;;9.23;89.45;97480.13;5042424;28;20040;-82
2023/10/25 07:46:17;;;;;;;9.88;7.65;;;;;;;9.24;89.62;97487.06;5068437;28;20046;-82
2023/10/25 07:48:44;;;;;;;9.98;7.10;;;;;;;9.22;89.79;97476.69;5079517;28;20089;-79
2023/10/25 07:51:09;;;;;;;17.38;10.68;;;;;;;8.86;93.40;97481.34;5049761;28;20035;-82
2023/10/25 07:53:35;;;;;;;12.55;7.40;;;;;;;9.39;89.59;97487.00;5080265;28;20032;-82
2023/10/25 07:56:03;;;;;;;11.48;7.55;;;;;;;9.49;88.71;97486.94;5083257;28;20119;-82
2023/10/25 07:58:29;;;;;;;12.75;7.60;;;;;;;9.53;88.37;97494.09;5106216;27;20040;-82
2023/10/25 08:00:54;;;;;;;14.23;8.32;;;;;;;9.60;88.51;97485.81;5088180;28;20036;-82
2023/10/25 08:03:19;;;;;;;10.00;7.10;;;;;;;9.52;88.59;97484.50;5078878;28;20106;-82
2023/10/25 08:05:45;;;;;;;10.57;7.68;;;;;;;9.59;87.81;97479.69;5074222;28;20036;-82
2023/10/25 08:08:10;;;;;;;19.75;11.75;;;;;;;9.50;88.42;97480.56;5101704;28;20669;-80
2023/10/25 08:10:36;;;;;;;17.05;9.38;;;;;;;9.46;89.21;97474.16;5079743;28;20024;-80
2023/10/25 08:13:01;;;;;;;13.98;7.78;;;;;;;9.47;88.92;97479.22;5075747;28;20032;-80
2023/10/25 08:15:27;;;;;;;12.00;7.88;;;;;;;9.61;88.60;97463.44;5069633;28;20568;-80
2023/10/25 08:17:53;;;;;;;11.55;7.97;;;;;;;9.72;88.24;97472.94;5058014;28;21257;-80
2023/10/25 08:20:20;;;;;;;11.77;8.18;;;;;;;9.64;88.59;97461.03;5082331;28;20101;-80
2023/10/25 08:22:45;;;;;;;16.42;8.93;;;;;;;9.55;89.67;97451.22;5073779;28;20438;-80
2023/10/25 08:25:10;;;;;;;13.98;9.30;;;;;;;9.62;89.57;97454.38;5080073;28;20046;-80
2023/10/25 08:27:36;;;;;;;20.02;12.32;;;;;;;9.64;89.56;97449.56;5082090;28;20511;-80
2023/10/25 08:30:03;;;;;;;14.05;8.50;;;;;;;9.53;90.13;97448.84;5086434;28;20030;-80
2023/10/25 08:32:28;;;;;;;18.60;12.68;;;;;;;9.53;89.80;97446.16;5074265;28;20040;-80
2023/10/25 08:34:53;;;;;;;13.65;8.45;;;;;;;9.61;89.74;97442.13;5072483;28;20032;-80
2023/10/25 08:37:19;;;;;;;14.27;9.68;;;;;;;9.78;88.57;97447.88;5066025;28;20028;-80
2023/10/25 08:39:44;;;;;;;14.10;9.13;;;;;;;9.52;90.10;97425.16;5078354;28;20093;-80
2023/10/25 08:42:14;;;;;;;17.52;10.15;;;;;;;9.73;89.92;97448.72;5076728;28;20130;-80
2023/10/25 08:44:41;;;;;;;17.20;10.93;;;;;;;9.38;91.31;97437.47;5074438;28;20035;-80
2023/10/25 08:47:10;;;;;;;15.60;10.32;;;;;;;9.80;89.24;97440.41;5062734;28;20032;-81
2023/10/25 08:49:36;;;;;;;12.98;7.90;;;;;;;9.95;88.34;97434.16;5076859;28;20035;-80
2023/10/25 08:52:02;;;;;;;16.35;11.30;;;;;;;9.71;89.60;97431.41;5072648;28;20017;-80
2023/10/25 08:54:29;;;;;;;15.55;9.63;;;;;;;9.76;89.76;97429.47;5077629;28;20395;-80
2023/10/25 08:56:54;;;;;;;13.35;9.02;;;;;;;9.82;89.39;97419.59;5083404;28;20031;-80
2023/10/25 08:59:20;;;;;;;17.83;10.32;;;;;;;9.59;91.50;97413.09;5069136;28;20025;-80
2023/10/25 09:01:45;;;;;;;18.33;11.45;;;;;;;9.88;89.61;97423.81;5080856;28;20043;-79
2023/10/25 09:04:11;;;;;;;14.07;9.10;;;;;;;9.89;89.90;97421.94;5080326;28;20407;-80
2023/10/25 09:06:36;;;;;;;13.75;9.07;;;;;;;9.86;89.81;97407.31;5084338;28;20114;-80
2023/10/25 09:09:05;;;;;;;18.38;11.35;;;;;;;9.76;90.75;97399.41;5069366;28;20115;-80
2023/10/25 09:11:42;;;;;;;29.42;15.65;;;;;;;9.65;92.20;97393.34;5066380;28;20570;-80
2023/10/25 09:14:10;;;;;;;15.88;8.30;;;;;;;9.73;92.00;97391.97;5073132;28;20511;-80
2023/10/25 09:16:36;;;;;;;13.98;8.48;;;;;;;10.03;90.93;97382.91;5086328;28;20036;-80
2023/10/25 09:19:03;;;;;;;20.88;11.50;;;;;;;9.75;91.10;97379.94;5078958;28;20082;-80
2023/10/25 09:21:28;;;;;;;19.83;12.85;;;;;;;9.54;91.88;97378.53;5074369;28;20123;-80
2023/10/25 09:23:56;;;;;;;11.65;7.85;;;;;;;10.00;90.43;97378.16;5086664;28;20446;-80
2023/10/25 09:26:22;;;;;;;14.50;8.55;;;;;;;10.29;88.40;97371.75;5076630;28;20035;-80
2023/10/25 09:28:53;;;;;;;12.10;8.82;;;;;;;10.09;89.83;97379.13;5101776;28;20051;-80
2023/10/25 09:31:28;;;;;;;20.25;11.63;;;;;;;9.89;90.22;97382.78;5085198;28;20024;-80
2023/10/25 09:33:57;;;;;;;15.35;10.88;;;;;;;9.99;90.60;97377.34;5067827;28;20115;-80
2023/10/25 09:36:22;;;;;;;15.18;10.82;;;;;;;9.96;91.05;97375.22;5084303;28;20491;-79
2023/10/25 09:38:50;;;;;;;11.90;7.72;;;;;;;10.04;90.01;97368.50;5084617;28;20024;-80
2023/10/25 09:41:19;;;;;;;14.30;8.80;;;;;;;10.26;89.22;97366.19;5079825;28;20043;-79
2023/10/25 09:43:48;;;;;;;12.48;8.57;;;;;;;10.17;90.25;97367.88;5072789;28;20430;-80
2023/10/25 09:46:21;;;;;;;11.30;8.05;;;;;;;10.29;89.49;97365.63;5078697;28;20059;-81
2023/10/25 09:49:04;;;;;;;9.52;7.07;;;;;;;10.67;87.32;97356.66;5077058;28;20027;-80
2023/10/25 09:51:41;;;;;;;15.13;9.48;;;;;;;10.33;88.95;97351.44;5066612;28;20249;-80
2023/10/25 09:54:13;;;;;;;11.18;7.53;;;;;;;10.48;87.85;97347.84;5077418;28;20099;-79
2023/10/25 09:56:40;;;;;;;10.60;8.27;;;;;;;10.41;88.57;97350.03;5076421;28;20044;-80
2023/10/25 09:59:12;;;;;;;15.10;10.23;;;;;;;10.19;89.12;97349.72;5091271;28;20043;-80
2023/10/25 10:01:39;;;;;;;16.15;10.70;;;;;;;9.85;89.76;97349.75;5090341;28;20031;-80
2023/10/25 10:04:30;;;;;;;10.25;6.97;;;;;;;10.29;89.90;97350.41;5086382;28;20502;-79
2023/10/25 10:07:21;;;;;;;12.02;7.55;;;;;;;10.63;87.75;97346.84;5083438;28;20023;-80
2023/10/25 10:10:03;;;;;;;9.65;7.32;;;;;;;10.69;87.02;97356.38;5077051;28;20033;-81
2023/10/25 10:12:29;;;;;;;11.38;7.20;;;;;;;10.66;87.23;97340.94;5078673;28;20058;-80
2023/10/25 10:14:54;;;;;;;11.00;6.97;;;;;;;10.69;87.18;97340.38;5076164;28;20118;-80
2023/10/25 10:17:20;;;;;;;13.15;8.65;;;;;;;10.42;87.32;97349.75;5066394;28;20036;-80
2023/10/25 10:19:49;;;;;;;8.70;6.38;;;;;;;10.67;87.39;97342.53;5074504;28;20376;-81
2023/10/25 10:22:18;;;;;;;15.73;7.90;;;;;;;10.72;87.03;97337.13;5076037;28;20086;-81
2023/10/25 10:24:58;;;;;;;9.27;6.65;;;;;;;10.63;87.00;97322.84;5092356;28;20036;-81
2023/10/25 10:27:55;;;;;;;13.07;6.30;;;;;;;10.83;86.96;97343.94;5075294;28;20131;-80
2023/10/25 10:30:30;;;;;;;9.90;6.43;;;;;;;10.69;87.01;97338.50;5075356;28;20024;-80
2023/10/25 10:32:56;;;;;;;11.60;7.38;;;;;;;10.60;87.02;97334.88;5073592;28;20020;-80
2023/10/25 10:35:22;;;;;;;15.55;8.10;;;;;;;10.74;87.14;97335.78;5078814;28;20040;-80
2023/10/25 10:37:56;;;;;;;9.98;6.95;;;;;;;10.81;86.76;97330.09;5075630;28;20036;-80
2023/10/25 10:40:22;;;;;;;11.82;8.73;;;;;;;10.57;86.80;97321.31;5074814;28;20088;-80
2023/10/25 10:42:47;;;;;;;6.55;5.32;;;;;;;10.89;87.40;97316.09;5071212;28;20127;-80
2023/10/25 10:45:19;;;;;;;13.63;6.95;;;;;;;10.89;86.61;97308.09;5077005;28;20147;-80
2023/10/25 10:48:09;;;;;;;9.88;6.50;;;;;;;10.99;85.70;97300.72;5082996;28;20107;-80
2023/10/25 10:50:38;;;;;;;9.15;5.47;;;;;;;10.90;86.72;97291.78;5089301;28;20348;-80
2023/10/25 10:53:03;;;;;;;9.35;5.63;;;;;;;11.08;86.25;97282.97;5075141;28;20399;-79
2023/10/25 10:55:29;;;;;;;8.73;5.35;;;;;;;11.08;85.74;97266.16;5066081;28;20024;-80
2023/10/25 10:57:54;;;;;;;8.18;5.47;;;;;;;10.77;86.20;97270.38;5069387;28;20038;-79
2023/10/25 11:00:20;;;;;;;7.15;5.18;;;;;;;11.04;86.23;97262.47;5074924;28;20029;-79
2023/10/25 11:02:50;;;;;;;6.68;4.65;;;;;;;10.89;85.88;97246.69;5069722;28;20114;-79
2023/10/25 11:05:19;;;;;;;5.78;4.53;;;;;;;10.90;86.05;97253.63;5075579;28;20054;-79
2023/10/25 11:07:47;;;;;;;6.05;4.60;;;;;;;10.95;85.30;97250.88;5074276;28;20111;-80
2023/10/25 11:10:12;;;;;;;7.53;5.10;;;;;;;11.04;85.72;97239.25;5075668;28;20038;-80
2023/10/25 11:12:38;;;;;;;7.30;4.13;;;;;;;10.89;85.19;97231.47;5074782;28;20023;-80
2023/10/25 11:15:04;;;;;;;4.78;3.83;;;;;;;11.01;85.58;97223.81;5070361;28;20118;-79
2023/10/25 11:17:34;;;;;;;4.18;3.60;;;;;;;11.06;85.03;97222.94;5060497;28;20032;-79
2023/10/25 11:20:00;;;;;;;9.30;4.18;;;;;;;10.73;84.57;97210.63;5074544;28;20387;-79
2023/10/25 11:22:26;;;;;;;8.10;4.05;;;;;;;10.99;85.78;97211.81;5074901;28;20369;-80
2023/10/25 11:24:53;;;;;;;10.68;4.07;;;;;;;10.84;84.17;97201.38;5078784;28;20032;-80
2023/10/25 11:27:21;;;;;;;6.50;3.58;;;;;;;10.71;85.04;97192.25;5084801;28;20066;-79
2023/10/25 11:29:50;;;;;;;5.22;3.55;;;;;;;10.68;86.44;97184.03;5082260;28;20040;-79
2023/10/25 11:32:16;;;;;;;3.88;3.47;;;;;;;10.67;84.82;97188.56;5079750;28;20027;-80
2023/10/25 11:34:42;;;;;;;6.53;2.97;;;;;;;10.74;84.42;97175.66;5068209;28;20038;-79